Time;durP1;ratioP1;P1;durP2;ratioP2;P2;SDS_P1;SDS_P2;PMS_P1;PMS_P2;Temp;Humidity;BMP_temperature;BMP_pressure;BME280_temperature;BME280_humidity;BME280_pressure;Samples;Min_cycle;Max_cycle;Signal;HPM_P1;HPM_P2
2024/03/02 00:02:42;;;;;;;38.10;25.60;;;;;;;6.78;92.86;99312.05;221040;1254;140233;-74
2024/03/02 00:07:57;;;;;;;44.30;28.30;;;;;;;6.82;92.75;99309.14;220690;1254;139483;-74
2024/03/02 00:13:02;;;;;;;45.70;26.10;;;;;;;6.85;92.97;99304.48;218206;1257;139370;-74
2024/03/02 00:18:08;;;;;;;36.90;22.90;;;;;;;6.89;92.70;99307.34;218536;1254;139988;-74
2024/03/02 00:23:19;;;;;;;39.10;22.90;;;;;;;6.90;93.00;99303.45;217872;1254;140520;-74
2024/03/02 00:28:33;;;;;;;42.00;23.30;;;;;;;6.90;93.00;99303.58;217981;1254;140805;-73
2024/03/02 00:33:45;;;;;;;36.90;24.00;;;;;;;6.90;92.94;99306.84;217945;1257;141734;-74
2024/03/02 00:38:52;;;;;;;36.70;21.30;;;;;;;6.90;92.88;99307.29;219176;1254;141034;-74
2024/03/02 00:44:08;;;;;;;36.30;26.20;;;;;;;6.89;92.79;99308.73;217821;1254;140584;-73
2024/03/02 00:49:19;;;;;;;44.00;25.60;;;;;;;6.86;92.94;99307.94;217973;1254;140723;-74
2024/03/02 00:54:26;;;;;;;42.60;23.50;;;;;;;6.83;92.88;99309.77;217767;1254;139946;-74
2024/03/02 00:59:31;;;;;;;38.80;23.50;;;;;;;6.81;93.15;99309.91;218489;1254;139195;-74
2024/03/02 01:04:36;;;;;;;35.90;23.80;;;;;;;6.81;93.15;99302.61;217928;1257;140153;-74
2024/03/02 01:09:41;;;;;;;40.20;25.30;;;;;;;6.81;93.20;99298.98;217882;1254;139280;-75
2024/03/02 01:14:45;;;;;;;32.90;23.00;;;;;;;6.81;93.10;99295.70;217840;1257;140242;-75
2024/03/02 01:19:50;;;;;;;35.00;22.90;;;;;;;6.79;93.13;99297.61;218012;1254;139908;-73
2024/03/02 01:24:55;;;;;;;34.10;22.00;;;;;;;6.78;93.43;99296.73;217978;1254;139404;-74
2024/03/02 01:30:00;;;;;;;40.90;25.30;;;;;;;6.78;93.08;99301.14;217885;1254;140363;-74
2024/03/02 01:35:05;;;;;;;36.00;22.20;;;;;;;6.76;93.41;99298.05;217810;1254;139717;-76
2024/03/02 01:40:11;;;;;;;34.10;24.10;;;;;;;6.73;93.40;99299.20;217909;1255;140047;-72
2024/03/02 01:45:15;;;;;;;29.30;20.40;;;;;;;6.70;93.41;99303.40;217996;1254;140867;-73
2024/03/02 01:50:31;;;;;;;33.10;23.50;;;;;;;6.68;93.34;99302.57;217870;1254;141476;-74
2024/03/02 01:55:35;;;;;;;35.70;22.80;;;;;;;6.67;93.46;99296.05;217854;1257;139570;-72
2024/03/02 02:00:40;;;;;;;37.30;21.50;;;;;;;6.65;93.82;99297.66;221126;1253;141056;-73
2024/03/02 02:05:44;;;;;;;30.20;21.30;;;;;;;6.66;93.47;99300.33;218200;1253;140165;-73
2024/03/02 02:10:49;;;;;;;37.10;21.10;;;;;;;6.69;93.65;99298.08;218505;1254;139417;-73
2024/03/02 02:15:54;;;;;;;32.60;22.50;;;;;;;6.71;93.37;99293.11;218335;1253;140056;-73
2024/03/02 02:20:58;;;;;;;32.10;21.20;;;;;;;6.72;93.31;99287.69;218073;1257;140548;-74
2024/03/02 02:26:03;;;;;;;34.30;19.70;;;;;;;6.75;93.61;99284.53;218146;1254;139098;-73
2024/03/02 02:31:08;;;;;;;48.20;25.10;;;;;;;6.76;93.56;99287.25;218478;1254;140012;-73
2024/03/02 02:36:13;;;;;;;31.20;20.20;;;;;;;6.75;93.70;99278.10;217895;1254;150777;-73
2024/03/02 02:41:18;;;;;;;34.40;21.10;;;;;;;6.73;93.55;99267.57;217816;1254;140839;-76
2024/03/02 02:46:22;;;;;;;33.00;20.00;;;;;;;6.72;93.43;99265.63;217886;1254;139890;-74
2024/03/02 02:51:28;;;;;;;31.20;19.60;;;;;;;6.70;93.28;99263.84;217919;1254;141859;-74
2024/03/02 02:56:32;;;;;;;36.50;23.80;;;;;;;6.66;93.24;99260.66;217890;1257;140245;-73
2024/03/02 03:01:36;;;;;;;29.50;20.40;;;;;;;6.59;93.12;99249.33;218342;1253;140164;-73
2024/03/02 03:06:44;;;;;;;32.50;21.90;;;;;;;6.51;92.94;99252.87;217925;1254;138890;-74
2024/03/02 03:11:49;;;;;;;30.70;21.20;;;;;;;6.41;92.54;99253.70;217688;1254;140418;-74
2024/03/02 03:16:54;;;;;;;34.50;20.80;;;;;;;6.34;92.97;99257.98;217884;1254;140992;-73
2024/03/02 03:21:59;;;;;;;31.10;18.50;;;;;;;6.30;93.22;99249.95;217876;1254;140587;-74
2024/03/02 03:27:05;;;;;;;29.40;21.00;;;;;;;6.28;93.65;99254.52;218717;1253;140347;-73
2024/03/02 03:32:10;;;;;;;34.10;21.40;;;;;;;6.28;93.52;99257.77;217955;1254;140078;-72
2024/03/02 03:37:15;;;;;;;27.70;19.20;;;;;;;6.29;93.70;99253.55;217463;1254;326237;-73
2024/03/02 03:42:20;;;;;;;33.10;21.80;;;;;;;6.26;93.47;99259.88;217912;1257;139294;-73
2024/03/02 03:47:24;;;;;;;26.10;18.50;;;;;;;6.22;93.68;99261.54;217979;1257;233091;-73
2024/03/02 03:52:29;;;;;;;34.90;20.50;;;;;;;6.22;94.22;99254.45;220632;1253;139895;-74
2024/03/02 03:57:33;;;;;;;29.60;19.50;;;;;;;6.26;93.87;99251.57;220297;1253;140554;-72
2024/03/02 04:02:38;;;;;;;31.80;20.30;;;;;;;6.33;94.18;99248.13;219484;1253;139659;-73
2024/03/02 04:07:43;;;;;;;26.10;16.40;;;;;;;6.39;94.38;99240.38;217910;1254;139615;-73
2024/03/02 04:12:50;;;;;;;28.50;18.90;;;;;;;6.44;94.08;99240.17;217910;1254;140782;-73
2024/03/02 04:17:58;;;;;;;29.10;19.60;;;;;;;6.48;94.34;99244.67;217935;1254;139368;-73
2024/03/02 04:23:03;;;;;;;32.00;20.80;;;;;;;6.50;94.38;99252.22;217922;1254;140670;-73
2024/03/02 04:28:08;;;;;;;31.60;19.40;;;;;;;6.53;94.35;99249.30;217790;1254;140229;-73
2024/03/02 04:33:11;;;;;;;24.40;17.10;;;;;;;6.54;94.40;99249.33;218000;1254;139539;-73
2024/03/02 04:38:15;;;;;;;30.30;17.50;;;;;;;6.55;94.28;99243.78;217971;1253;139708;-74
2024/03/02 04:43:20;;;;;;;28.40;18.70;;;;;;;6.55;94.16;99249.11;217863;1254;140235;-75
2024/03/02 04:48:25;;;;;;;32.00;18.30;;;;;;;6.52;94.06;99254.03;217930;1254;140098;-73
2024/03/02 04:53:29;;;;;;;28.40;18.10;;;;;;;6.52;94.35;99253.05;218078;1254;140114;-74
2024/03/02 04:58:33;;;;;;;27.90;18.90;;;;;;;6.53;94.29;99257.81;217801;1254;140847;-73
2024/03/02 05:03:37;;;;;;;32.60;19.80;;;;;;;6.55;94.28;99264.71;217976;1254;139776;-74
2024/03/02 05:08:44;;;;;;;29.20;18.70;;;;;;;6.59;94.40;99267.58;218080;1254;140089;-74
2024/03/02 05:13:49;;;;;;;29.10;19.90;;;;;;;6.58;94.24;99262.77;217771;1254;140288;-75
2024/03/02 05:18:53;;;;;;;24.50;16.40;;;;;;;6.54;93.99;99260.49;217905;1254;140502;-73
2024/03/02 05:23:58;;;;;;;23.90;16.60;;;;;;;6.49;94.05;99272.55;220056;1253;139857;-73
2024/03/02 05:29:02;;;;;;;28.00;18.20;;;;;;;6.40;93.81;99271.95;217815;1254;139282;-74
2024/03/02 05:34:07;;;;;;;33.20;19.80;;;;;;;6.33;93.55;99278.71;219861;1253;139514;-74
2024/03/02 05:39:11;;;;;;;28.90;19.80;;;;;;;6.29;93.66;99276.95;218179;1254;139818;-73
2024/03/02 05:44:18;;;;;;;33.80;18.80;;;;;;;6.25;93.96;99279.15;218171;1254;139526;-72
2024/03/02 05:49:22;;;;;;;24.30;17.10;;;;;;;6.23;93.85;99285.75;221037;1253;139941;-73
2024/03/02 05:54:27;;;;;;;25.50;16.80;;;;;;;6.23;93.77;99288.98;220590;1253;139606;-74
2024/03/02 05:59:32;;;;;;;29.10;19.00;;;;;;;6.23;93.71;99294.19;218139;1253;140368;-73
2024/03/02 06:04:37;;;;;;;23.30;18.20;;;;;;;6.28;93.80;99302.70;218112;1253;140917;-72
2024/03/02 06:09:44;;;;;;;31.50;19.60;;;;;;;6.30;93.54;99305.94;217888;1257;139411;-74
2024/03/02 06:14:49;;;;;;;30.40;19.50;;;;;;;6.30;94.01;99309.04;219112;1253;139909;-75
2024/03/02 06:19:54;;;;;;;23.00;16.20;;;;;;;6.33;94.04;99306.09;217803;1254;140366;-73
2024/03/02 06:24:59;;;;;;;29.00;17.00;;;;;;;6.37;93.78;99298.52;218021;1253;140787;-73
2024/03/02 06:30:06;;;;;;;27.40;19.70;;;;;;;6.43;94.18;99308.45;218951;1254;141154;-73
2024/03/02 06:35:14;;;;;;;27.20;19.10;;;;;;;6.50;94.06;99307.22;218024;1254;140552;-72
2024/03/02 06:40:23;;;;;;;29.90;18.90;;;;;;;6.57;93.85;99309.52;217929;1254;140320;-73
2024/03/02 06:45:30;;;;;;;29.00;20.00;;;;;;;6.65;93.98;99309.29;217774;1257;140998;-73
2024/03/02 06:50:34;;;;;;;23.30;15.70;;;;;;;6.73;93.95;99304.97;217881;1254;140662;-73
2024/03/02 06:55:38;;;;;;;28.40;17.80;;;;;;;6.82;94.12;99312.17;218023;1257;139236;-73
2024/03/02 07:00:44;;;;;;;30.90;21.40;;;;;;;6.87;93.53;99310.90;217915;1253;140209;-74
2024/03/02 07:05:48;;;;;;;26.60;18.30;;;;;;;6.96;93.86;99320.27;217767;1254;140309;-75
2024/03/02 07:10:52;;;;;;;35.20;20.20;;;;;;;7.04;93.63;99329.34;217920;1254;139402;-73
2024/03/02 07:21:22;;;;;;;31.90;19.00;;;;;;;7.20;93.50;99334.02;217884;1254;139890;-74
2024/03/02 07:26:26;;;;;;;29.40;19.40;;;;;;;7.30;93.53;99340.05;217993;1254;139766;-75
2024/03/02 07:31:38;;;;;;;29.50;19.60;;;;;;;7.44;93.71;99352.99;218021;1254;139777;-74
2024/03/02 07:36:42;;;;;;;31.10;21.30;;;;;;;7.55;93.25;99350.30;217829;1253;140622;-75
2024/03/02 07:41:46;;;;;;;37.20;21.00;;;;;;;7.65;92.91;99347.67;220700;1253;140319;-74
2024/03/02 07:46:50;;;;;;;33.00;19.00;;;;;;;7.76;93.08;99349.92;220612;1253;141309;-77
2024/03/02 07:51:55;;;;;;;27.40;19.30;;;;;;;7.81;92.58;99353.23;218130;1257;139926;-73
2024/03/02 07:57:00;;;;;;;28.40;20.30;;;;;;;7.88;92.60;99352.91;218230;1254;234673;-74
2024/03/02 08:02:04;;;;;;;27.60;17.30;;;;;;;8.00;92.62;99355.70;218763;1253;140161;-75
2024/03/02 08:07:09;;;;;;;33.00;20.80;;;;;;;8.14;92.54;99364.06;218367;1254;140737;-75
2024/03/02 08:12:13;;;;;;;27.00;18.30;;;;;;;8.30;92.30;99372.08;217826;1254;141481;-74
2024/03/02 08:17:17;;;;;;;32.30;20.00;;;;;;;8.48;92.03;99372.84;218060;1253;141246;-75
2024/03/02 08:22:22;;;;;;;34.00;18.30;;;;;;;8.52;91.37;99379.10;217885;1254;140918;-78
2024/03/02 08:27:26;;;;;;;28.40;17.60;;;;;;;8.60;91.44;99370.08;217888;1258;140980;-76
2024/03/02 08:32:30;;;;;;;30.90;19.80;;;;;;;8.81;91.31;99370.10;218228;1257;140638;-76
2024/03/02 08:37:39;;;;;;;32.30;22.00;;;;;;;8.98;91.15;99376.84;217854;1254;140499;-75
2024/03/02 08:42:42;;;;;;;;;;;;;;;9.09;90.62;99374.52;217962;1254;139992;-75
2024/03/02 08:47:47;;;;;;;36.50;19.60;;;;;;;9.15;90.34;99371.36;218287;1257;125803;-77
2024/03/02 08:52:51;;;;;;;32.00;19.90;;;;;;;9.21;90.24;99366.14;217980;1257;139753;-75
2024/03/02 08:57:55;;;;;;;32.00;21.90;;;;;;;9.37;90.49;99368.98;218286;1254;139212;-77
2024/03/02 09:02:59;;;;;;;32.80;21.40;;;;;;;9.54;90.22;99373.52;218364;1257;140193;-77
2024/03/02 09:08:04;;;;;;;31.00;19.60;;;;;;;9.71;89.89;99375.23;217879;1257;139554;-76
2024/03/02 09:13:08;;;;;;;41.20;21.70;;;;;;;9.70;89.02;99380.00;217661;1253;140429;-76
2024/03/02 09:18:13;;;;;;;34.00;20.70;;;;;;;9.75;89.18;99370.54;218034;1257;139898;-77
2024/03/02 09:23:21;;;;;;;36.60;18.80;;;;;;;9.82;88.71;99375.05;217812;1254;139885;-76
2024/03/02 09:28:25;;;;;;;35.20;21.20;;;;;;;10.01;88.96;99379.40;219547;1253;140799;-76
2024/03/02 09:33:28;;;;;;;30.70;19.20;;;;;;;10.27;88.89;99379.19;217822;1257;140362;-76
2024/03/02 09:38:33;;;;;;;28.20;18.60;;;;;;;10.41;88.30;99382.82;218081;1254;140930;-76
2024/03/02 09:43:38;;;;;;;31.50;20.80;;;;;;;10.37;87.57;99386.18;218609;1254;140535;-75
2024/03/02 09:48:44;;;;;;;30.70;19.70;;;;;;;10.46;87.42;99385.52;217867;1254;141133;-76
2024/03/02 09:53:49;;;;;;;28.60;17.80;;;;;;;10.52;86.97;99384.00;217878;1254;141654;-77
2024/03/02 09:58:53;;;;;;;28.60;19.80;;;;;;;10.56;86.89;99387.21;218874;1254;141321;-78
2024/03/02 10:03:59;;;;;;;30.00;20.20;;;;;;;10.72;86.96;99388.73;217884;1254;140189;-77
2024/03/02 10:09:03;;;;;;;32.30;19.90;;;;;;;10.92;87.20;99384.08;218409;1255;141967;-78
2024/03/02 10:14:12;;;;;;;35.30;19.10;;;;;;;11.15;87.00;99378.30;217863;1254;140429;-77
2024/03/02 10:19:18;;;;;;;36.00;21.40;;;;;;;11.31;86.29;99366.72;217832;1257;140080;-78
2024/03/02 10:24:22;;;;;;;32.90;19.30;;;;;;;11.51;86.09;99365.09;217934;1257;140578;-78
2024/03/02 10:29:29;;;;;;;36.40;20.80;;;;;;;11.63;85.45;99363.45;217729;1254;140373;-80
2024/03/02 10:34:35;;;;;;;27.40;19.90;;;;;;;11.69;85.37;99357.64;217683;1254;141139;-78
2024/03/02 10:39:40;;;;;;;26.50;17.80;;;;;;;11.93;85.34;99357.70;218152;1254;140063;-78
2024/03/02 10:44:45;;;;;;;30.60;22.30;;;;;;;12.14;85.00;99355.45;218720;1254;143662;-77
2024/03/02 10:49:53;;;;;;;28.90;19.50;;;;;;;12.33;84.81;99364.73;217955;1254;140906;-77
2024/03/02 10:54:59;;;;;;;25.30;17.20;;;;;;;12.38;84.13;99358.54;218034;1254;141033;-76
2024/03/02 11:00:08;;;;;;;29.90;17.60;;;;;;;12.44;82.88;99358.15;217630;1257;141340;-77
2024/03/02 11:05:25;;;;;;;34.50;21.30;;;;;;;12.34;82.36;99354.80;217976;1254;142024;-77
2024/03/02 11:10:48;;;;;;;24.60;17.10;;;;;;;12.54;83.07;99349.07;217780;1254;140859;-76
2024/03/02 11:16:00;;;;;;;31.30;20.30;;;;;;;12.73;82.11;99347.34;217894;1254;140691;-77
2024/03/02 11:21:05;;;;;;;28.30;20.60;;;;;;;12.56;81.20;99339.84;218350;1254;140331;-78
2024/03/02 11:26:39;;;;;;;24.20;17.20;;;;;;;12.65;81.69;99333.91;218384;1254;140903;-76
2024/03/02 11:32:02;;;;;;;37.50;21.60;;;;;;;12.57;80.79;99340.06;218795;1256;139893;-78
2024/03/02 11:37:06;;;;;;;33.40;23.60;;;;;;;12.34;80.12;99347.85;220033;1254;140059;-77
2024/03/02 11:42:13;;;;;;;30.10;20.30;;;;;;;12.20;80.13;99343.63;219243;1257;141362;-78
2024/03/02 11:47:17;;;;;;;28.10;18.60;;;;;;;12.16;80.46;99346.96;218891;1257;141388;-80
2024/03/02 11:52:22;;;;;;;37.80;21.00;;;;;;;12.14;80.33;99347.48;217775;1254;140436;-78
2024/03/02 11:57:27;;;;;;;28.30;19.50;;;;;;;12.05;80.30;99344.35;217755;1253;140347;-79
2024/03/02 12:02:31;;;;;;;30.70;19.70;;;;;;;12.00;80.32;99339.77;217952;1258;141595;-77
2024/03/02 12:07:35;;;;;;;28.70;19.50;;;;;;;11.85;79.81;99336.15;217949;1254;140901;-78
2024/03/02 12:12:39;;;;;;;34.20;21.80;;;;;;;11.63;79.66;99339.00;218031;1254;141226;-77
2024/03/02 12:17:45;;;;;;;41.20;20.70;;;;;;;11.44;79.94;99339.33;217997;1254;141628;-77
2024/03/02 12:22:52;;;;;;;31.80;19.80;;;;;;;11.31;80.51;99340.72;217930;1253;141135;-77
2024/03/02 12:27:59;;;;;;;33.00;20.50;;;;;;;11.26;80.82;99343.98;217920;1258;141366;-77
2024/03/02 12:33:04;;;;;;;33.40;20.60;;;;;;;11.26;80.88;99342.96;218262;1254;141028;-77
2024/03/02 12:38:10;;;;;;;33.60;21.20;;;;;;;11.24;80.98;99344.59;217874;1254;140971;-78
2024/03/02 12:43:16;;;;;;;35.00;21.10;;;;;;;11.19;80.85;99349.54;217795;1258;141270;-78
2024/03/02 12:48:20;;;;;;;39.60;23.60;;;;;;;11.19;81.04;99345.77;217770;1253;140972;-78
2024/03/02 12:53:24;;;;;;;42.00;24.00;;;;;;;11.21;81.01;99338.85;217983;1254;140738;-78
2024/03/02 12:58:29;;;;;;;36.60;20.70;;;;;;;11.27;80.97;99342.23;218122;1254;140851;-77
2024/03/02 13:03:36;;;;;;;40.60;23.10;;;;;;;11.26;81.00;99338.86;217813;1257;140282;-78
2024/03/02 13:08:41;;;;;;;38.00;20.80;;;;;;;11.21;80.71;99333.93;218126;1254;141707;-78
2024/03/02 13:13:45;;;;;;;42.20;23.60;;;;;;;11.19;81.14;99332.14;217999;1254;140637;-77
2024/03/02 13:18:49;;;;;;;52.80;34.60;;;;;;;11.17;81.00;99327.27;218042;1257;141452;-76
2024/03/02 13:23:54;;;;;;;37.70;23.40;;;;;;;11.07;80.89;99324.30;218047;1254;140634;-75
2024/03/02 13:29:03;;;;;;;50.80;27.90;;;;;;;11.03;81.22;99323.14;217993;1254;141507;-77
2024/03/02 13:34:08;;;;;;;35.30;21.40;;;;;;;10.93;81.05;99322.40;217981;1258;140230;-77
2024/03/02 13:39:15;;;;;;;31.70;22.20;;;;;;;10.84;80.91;99319.23;219454;1253;140270;-76
2024/03/02 13:44:19;;;;;;;41.20;23.90;;;;;;;10.78;81.13;99321.02;217950;1254;140143;-76
2024/03/02 13:49:24;;;;;;;38.80;21.90;;;;;;;10.81;81.44;99320.50;217922;1259;140000;-76
2024/03/02 13:54:27;;;;;;;40.00;24.30;;;;;;;10.82;81.74;99324.09;217951;1257;141853;-74
2024/03/02 13:59:31;;;;;;;35.20;20.80;;;;;;;10.80;81.75;99326.46;218041;1259;140747;-77
2024/03/02 14:04:36;;;;;;;39.50;22.90;;;;;;;10.75;81.49;99330.28;217929;1254;140284;-78
2024/03/02 14:09:41;;;;;;;33.90;21.20;;;;;;;10.74;81.67;99325.27;217773;1254;140674;-78
2024/03/02 14:14:45;;;;;;;53.30;24.90;;;;;;;10.71;81.56;99323.95;218122;1258;140445;-79
2024/03/02 14:19:49;;;;;;;52.50;25.60;;;;;;;10.71;81.87;99324.26;218011;1255;140266;-77
2024/03/02 14:24:53;;;;;;;33.50;23.70;;;;;;;10.69;81.50;99324.40;218084;1254;139993;-76
2024/03/02 14:29:57;;;;;;;38.70;25.20;;;;;;;10.59;81.38;99325.90;217933;1254;140651;-77
2024/03/02 14:35:01;;;;;;;33.30;24.40;;;;;;;10.48;81.58;99323.87;217946;1258;140780;-76
2024/03/02 14:40:09;;;;;;;41.30;25.30;;;;;;;10.49;81.96;99317.23;218098;1254;140146;-76
2024/03/02 14:45:14;;;;;;;39.30;24.20;;;;;;;10.55;82.02;99314.60;217788;1258;141257;-77
2024/03/02 14:50:18;;;;;;;46.40;25.20;;;;;;;10.57;81.98;99309.98;218591;1254;139971;-78
2024/03/02 14:55:22;;;;;;;36.00;23.70;;;;;;;10.52;82.07;99309.27;217962;1257;139768;-75
2024/03/02 15:00:26;;;;;;;39.80;24.00;;;;;;;10.53;81.89;99309.77;218797;1259;140351;-78
2024/03/02 15:05:30;;;;;;;41.40;24.90;;;;;;;10.48;81.78;99306.71;218377;1254;141312;-77
2024/03/02 15:10:33;;;;;;;39.10;23.80;;;;;;;10.45;82.05;99304.91;218109;1254;141568;-77
2024/03/02 15:15:38;;;;;;;43.10;24.60;;;;;;;10.43;82.16;99305.84;217902;1259;142207;-75
2024/03/02 15:20:42;;;;;;;42.20;26.80;;;;;;;10.34;81.97;99311.69;218044;1254;140399;-78
2024/03/02 15:25:46;;;;;;;46.90;28.50;;;;;;;10.27;82.23;99314.13;218026;1254;140725;-76
2024/03/02 15:30:51;;;;;;;51.40;29.90;;;;;;;10.22;81.97;99318.42;218061;1259;141119;-76
2024/03/02 15:36:02;;;;;;;95.50;41.90;;;;;;;10.17;82.16;99317.52;219849;1257;140678;-77
2024/03/02 15:41:06;;;;;;;100.20;46.20;;;;;;;10.13;82.00;99323.09;217632;1254;497304;-77
2024/03/02 15:46:10;;;;;;;50.10;31.20;;;;;;;10.12;82.27;99322.74;217751;1254;141356;-77
2024/03/02 15:51:14;;;;;;;44.90;25.70;;;;;;;10.03;81.89;99325.44;217889;1260;139800;-77
2024/03/02 15:56:19;;;;;;;48.70;26.70;;;;;;;9.97;81.93;99321.44;217899;1257;140882;-78
2024/03/02 16:01:23;;;;;;;43.40;27.10;;;;;;;9.91;82.27;99321.66;217930;1258;141415;-76
2024/03/02 16:06:29;;;;;;;43.30;24.90;;;;;;;9.89;82.52;99320.98;217581;1254;142738;-74
2024/03/02 16:11:35;;;;;;;38.70;21.70;;;;;;;9.89;82.64;99321.88;217782;1256;140537;-77
2024/03/02 16:16:40;;;;;;;54.50;29.00;;;;;;;9.78;82.27;99320.52;217679;1260;140862;-76
2024/03/02 16:21:45;;;;;;;54.60;29.50;;;;;;;9.68;82.33;99317.59;217663;1259;140882;-77
2024/03/02 16:26:49;;;;;;;47.50;26.50;;;;;;;9.63;82.55;99319.92;217961;1259;139712;-74
2024/03/02 16:31:54;;;;;;;58.30;29.80;;;;;;;9.61;82.69;99325.33;217952;1254;139590;-76
2024/03/02 16:36:58;;;;;;;43.60;24.90;;;;;;;9.59;83.00;99334.98;217722;1256;141022;-76
2024/03/02 17:19:53;;;;;;;49.30;29.60;;;;;;;9.02;83.92;99356.45;214895;1295;657962;-76
2024/03/02 17:24:58;;;;;;;61.00;31.80;;;;;;;8.96;83.94;99358.88;215847;1272;139617;-76
2024/03/02 17:30:04;;;;;;;57.00;28.90;;;;;;;8.90;84.34;99363.78;215523;1273;310735;-77
2024/03/02 17:35:08;;;;;;;55.80;28.80;;;;;;;8.85;84.42;99366.79;217139;1269;139507;-76
2024/03/02 17:40:13;;;;;;;44.70;24.60;;;;;;;8.82;84.57;99369.22;216119;1269;140399;-77
2024/03/02 17:45:16;;;;;;;48.40;24.90;;;;;;;8.79;84.82;99367.02;217206;1272;138968;-77
2024/03/02 17:50:20;;;;;;;48.00;27.70;;;;;;;8.75;84.89;99368.42;216055;1273;139973;-76
2024/03/02 17:55:24;;;;;;;48.20;28.00;;;;;;;8.72;84.96;99367.02;216268;1269;140120;-76
2024/03/02 18:00:28;;;;;;;45.40;27.50;;;;;;;8.71;85.16;99371.36;216095;1269;139365;-76
2024/03/02 18:05:32;;;;;;;44.10;23.50;;;;;;;8.68;85.28;99369.86;216751;1269;139253;-77
2024/03/02 18:10:36;;;;;;;49.20;27.80;;;;;;;8.64;85.29;99370.42;216304;1273;139972;-77
2024/03/02 18:15:40;;;;;;;60.50;33.60;;;;;;;8.55;85.25;99364.17;216013;1274;139122;-76
2024/03/02 18:20:51;;;;;;;59.20;31.40;;;;;;;8.47;85.23;99365.33;216082;1273;139457;-75
2024/03/02 18:25:59;;;;;;;59.50;33.70;;;;;;;8.38;85.28;99361.58;216111;1273;139534;-76
2024/03/02 18:31:04;;;;;;;59.90;33.70;;;;;;;8.29;85.38;99360.77;216150;1272;140324;-74
2024/03/02 18:36:09;;;;;;;74.10;40.30;;;;;;;8.20;85.32;99358.75;216851;1269;139518;-75
2024/03/02 18:41:13;;;;;;;70.00;34.80;;;;;;;8.13;85.56;99360.65;216610;1272;139473;-74
2024/03/02 18:46:18;;;;;;;59.70;33.90;;;;;;;8.09;85.65;99359.16;216126;1269;139117;-76
2024/03/02 18:51:22;;;;;;;67.00;37.60;;;;;;;8.01;85.90;99356.98;216138;1273;139047;-79
2024/03/02 18:56:27;;;;;;;58.90;33.20;;;;;;;7.93;85.96;99356.05;216115;1272;139189;-75
2024/03/02 19:01:31;;;;;;;64.40;34.60;;;;;;;7.87;85.99;99355.94;216478;1273;141058;-76
2024/03/02 19:06:35;;;;;;;70.30;35.10;;;;;;;7.81;86.10;99353.13;216059;1276;139851;-74
2024/03/02 19:11:40;;;;;;;70.60;36.60;;;;;;;7.74;86.19;99357.62;217122;1267;139643;-75
2024/03/02 19:16:44;;;;;;;61.20;36.30;;;;;;;7.68;86.20;99363.14;217369;1266;139082;-75
2024/03/02 19:21:48;;;;;;;79.60;37.20;;;;;;;7.61;86.09;99359.73;216780;1264;139250;-75
2024/03/02 19:27:05;;;;;;;79.80;39.30;;;;;;;7.54;86.27;99363.09;217087;1261;139584;-74
2024/03/02 19:32:09;;;;;;;75.80;38.30;;;;;;;7.45;86.45;99366.33;217143;1261;139167;-75
2024/03/02 19:37:17;;;;;;;;;;;;;;;7.39;87.01;99365.79;216926;1265;139294;-74
2024/03/02 19:42:21;;;;;;;66.80;34.50;;;;;;;7.32;86.98;99361.96;217295;1265;125581;-75
2024/03/02 19:47:26;;;;;;;64.90;33.40;;;;;;;7.25;86.92;99364.99;217225;1260;139266;-73
2024/03/02 19:52:30;;;;;;;66.40;36.70;;;;;;;7.22;87.64;99361.68;217195;1263;140215;-75
2024/03/02 19:57:40;;;;;;;60.20;32.90;;;;;;;7.21;87.34;99358.35;216994;1264;139314;-76
2024/03/02 20:02:45;;;;;;;59.60;32.90;;;;;;;7.20;87.87;99357.30;217070;1264;139826;-77
2024/03/02 20:07:49;;;;;;;50.80;30.30;;;;;;;7.19;87.80;99352.77;217295;1264;139972;-77
2024/03/02 20:12:53;;;;;;;70.00;38.50;;;;;;;7.19;88.20;99349.31;217006;1265;140083;-73
2024/03/02 20:17:59;;;;;;;94.70;45.30;;;;;;;7.19;88.49;99349.40;216998;1265;139552;-74
2024/03/02 20:23:02;;;;;;;76.50;36.20;;;;;;;7.21;88.55;99346.73;216890;1264;139942;-75
2024/03/02 20:28:06;;;;;;;72.60;37.70;;;;;;;7.23;89.08;99344.45;217037;1261;140008;-73
2024/03/02 20:33:09;;;;;;;73.90;38.60;;;;;;;7.25;89.15;99345.86;217017;1260;139663;-73
2024/03/02 20:38:14;;;;;;;65.70;33.30;;;;;;;7.29;89.19;99343.83;217653;1264;140344;-73
2024/03/02 20:43:17;;;;;;;59.20;32.40;;;;;;;7.34;89.82;99344.39;217065;1261;140776;-77
2024/03/02 20:48:21;;;;;;;56.80;31.80;;;;;;;7.39;89.58;99338.54;216814;1264;141441;-74
2024/03/02 20:53:25;;;;;;;63.20;37.00;;;;;;;7.43;89.47;99335.95;217009;1261;139401;-73
2024/03/02 20:58:30;;;;;;;58.90;28.20;;;;;;;7.49;89.73;99340.17;216925;1264;139408;-77
2024/03/02 21:03:37;;;;;;;53.20;34.90;;;;;;;7.51;89.96;99343.08;217677;1263;143220;-73
2024/03/02 21:08:41;;;;;;;46.50;29.20;;;;;;;7.56;89.95;99343.84;217690;1260;139661;-73
2024/03/02 21:13:45;;;;;;;52.00;29.30;;;;;;;7.59;89.67;99342.70;217875;1261;140210;-74
2024/03/02 21:18:50;;;;;;;52.40;31.60;;;;;;;7.62;89.82;99349.73;216829;1264;140778;-73
2024/03/02 21:23:55;;;;;;;50.60;32.70;;;;;;;7.66;89.92;99343.93;216973;1261;140229;-73
2024/03/02 21:29:03;;;;;;;54.00;33.10;;;;;;;7.69;90.15;99341.73;216922;1265;139525;-73
2024/03/02 21:34:08;;;;;;;;;;;;;;;7.72;90.07;99338.95;216870;1264;140211;-75
2024/03/02 21:39:13;;;;;;;59.60;27.40;;;;;;;7.70;90.41;99339.70;217225;1264;126557;-73
2024/03/02 21:44:18;;;;;;;50.30;28.10;;;;;;;7.73;90.51;99334.85;216780;1265;139496;-76
2024/03/02 21:49:23;;;;;;;47.80;26.60;;;;;;;7.73;90.20;99337.34;217121;1266;139140;-76
2024/03/02 21:54:28;;;;;;;44.80;27.50;;;;;;;7.72;90.39;99335.39;217014;1262;140314;-73
2024/03/02 21:59:33;;;;;;;62.50;34.10;;;;;;;7.71;90.12;99332.55;216800;1262;140340;-73
2024/03/02 22:04:38;;;;;;;47.50;29.80;;;;;;;7.70;90.05;99329.98;216703;1262;224673;-72
2024/03/02 22:09:43;;;;;;;56.80;34.40;;;;;;;7.68;90.24;99329.87;217583;1262;140569;-73
2024/03/02 22:14:48;;;;;;;56.40;32.00;;;;;;;7.67;89.99;99330.32;217003;1264;141408;-73
2024/03/02 22:19:53;;;;;;;63.10;31.70;;;;;;;7.63;89.74;99329.05;216809;1262;139673;-72
2024/03/02 22:24:58;;;;;;;53.90;32.70;;;;;;;7.56;89.78;99331.43;216911;1262;139336;-73
2024/03/02 22:30:06;;;;;;;47.00;30.60;;;;;;;7.48;89.74;99337.25;217058;1262;140490;-74
2024/03/02 22:35:09;;;;;;;54.60;33.80;;;;;;;7.41;89.89;99333.04;217781;1262;140432;-75
2024/03/02 22:40:14;;;;;;;55.80;32.90;;;;;;;7.37;89.79;99331.27;217875;1263;140797;-73
2024/03/02 22:45:19;;;;;;;54.40;31.50;;;;;;;7.32;89.62;99334.44;216833;1262;140712;-72
2024/03/02 22:50:23;;;;;;;46.80;31.50;;;;;;;7.28;89.76;99330.13;218215;1262;139018;-73
2024/03/02 22:55:28;;;;;;;53.10;32.70;;;;;;;7.25;89.94;99335.14;217536;1262;140408;-72
2024/03/02 23:00:47;;;;;;;67.80;31.90;;;;;;;7.22;89.38;99330.36;216880;1262;140057;-72
2024/03/02 23:05:52;;;;;;;55.20;31.50;;;;;;;7.16;90.10;99330.38;218248;1262;139467;-75
2024/03/02 23:10:57;;;;;;;53.00;30.20;;;;;;;7.16;89.91;99327.34;216842;1263;140108;-75
2024/03/02 23:16:04;;;;;;;45.60;29.20;;;;;;;7.17;90.26;99327.36;216855;1262;138954;-73
2024/03/02 23:21:08;;;;;;;50.40;31.50;;;;;;;7.19;90.55;99325.54;216670;1263;139832;-72
2024/03/02 23:26:13;;;;;;;302.40;95.20;;;;;;;7.22;90.11;99321.76;216766;1266;142356;-75
2024/03/02 23:31:17;;;;;;;220.70;72.00;;;;;;;7.23;90.32;99324.91;216798;1262;139669;-73
2024/03/02 23:36:22;;;;;;;155.80;58.60;;;;;;;7.23;90.24;99325.85;216992;1266;139104;-74
2024/03/02 23:41:27;;;;;;;129.20;52.20;;;;;;;7.22;90.36;99324.24;216580;1266;140269;-76
2024/03/02 23:46:31;;;;;;;79.10;34.30;;;;;;;7.19;90.14;99321.62;216880;1263;139812;-73